Airfield :
LOGIN :

Register | Disclaimer

   EN    FR    IT 

 










Legend :    VFR   Marginal VFR   IFR   Intensive IFR   Very Intensive IFR
Visi :
Ceiling :
>= 8 km
>= 3000ft
5 to 8 km
1000 to 3000 ft
1500m to 5 km
500 to 1000 ft
800 to 1500m
200 to 500 ft
< 800m
< 200 ft
Symbols :   Thunderstorms  Fog  Heavy snow  Heavy precipitations  Wind > 20 kt
SIGMETs :     Misc.  Thunderstorms  Icing  Turbulence  Mountain Waves  Volcanic Ashes







- Airport Elevation : 821 ft
- IATA code : LYS
- Download approach charts


LFLL - Lyon St Exupéry / Satolas

CURRENT METAR :
  • 260900Z 34012KT 9999 SCT025 SCT045 15/07 Q1021 NOSIG

EXPIRED METARs :
  • 260830Z 33010KT 9999 SCT024 14/07 Q1021 NOSIG
  • 260800Z 32014KT 290V350 9999 FEW023 SCT046 14/07 Q1021 NOSIG
  • 260730Z 33013KT 9999 FEW033 SCT041 13/07 Q1021 NOSIG
  • 260700Z 33010KT 9999 FEW020 SCT033 13/07 Q1021 NOSIG
  • 260630Z 34009KT 300V360 9999 FEW019 SCT060 13/07 Q1021 NOSIG

TAF TAF LFLL
Valid from the 26 at 06:00 until the 27 at 12:00 UTC


260500Z 2606/2712 35010KT 9999 SCT035 SCT060
BECMG 2708/2711 20010KT
No reported NOTAMs for that airfield.



MET'MAP, your aeronautical weather chart ! - Copyright ORBIFLY December 2007 - Disclaimer

ORBIFLY MET'MAP TEAM :

Programming & Development : Alexandra Zaïnal
Concept & Development : Baudouin d'Aumeries
Co-Development & Prog : Marc-Olivier Méhu
Technical & hardware support : Manuel Goepfert

Contact : metmap@orbifly.com




SOURCES & CREDITS :

   NOAA